createdAt,value
2018-09-23T00:00:56.047Z,10.80
2018-09-23T00:03:24.240Z,10.80
2018-09-23T00:05:52.478Z,10.80
2018-09-23T00:08:20.653Z,10.80
2018-09-23T00:10:48.826Z,10.80
2018-09-23T00:13:17.045Z,10.80
2018-09-23T00:15:45.285Z,10.80
2018-09-23T00:18:13.862Z,10.80
2018-09-23T00:20:42.030Z,10.80
2018-09-23T00:23:10.186Z,10.80
2018-09-23T00:25:38.334Z,10.80
2018-09-23T00:28:06.559Z,10.80
2018-09-23T00:30:34.706Z,10.80
2018-09-23T00:33:02.853Z,10.80
2018-09-23T00:35:31.246Z,10.80
2018-09-23T00:37:59.578Z,10.80
2018-09-23T00:40:27.752Z,10.80
2018-09-23T00:42:55.947Z,10.80
2018-09-23T00:45:24.146Z,10.70
2018-09-23T00:47:52.586Z,10.70
2018-09-23T00:50:20.790Z,10.80
2018-09-23T00:52:50.026Z,10.70
2018-09-23T00:55:18.210Z,10.70
2018-09-23T00:57:46.564Z,10.70
2018-09-23T01:00:14.970Z,10.70
2018-09-23T01:02:43.123Z,10.70
2018-09-23T01:05:12.111Z,10.70
2018-09-23T01:07:40.345Z,10.70
2018-09-23T01:10:08.604Z,10.70
2018-09-23T01:12:36.738Z,10.60
2018-09-23T01:15:04.990Z,10.60
2018-09-23T01:17:33.334Z,10.60
2018-09-23T01:20:01.922Z,10.60
2018-09-23T01:22:30.126Z,10.60
2018-09-23T01:24:59.293Z,10.60
2018-09-23T01:27:27.878Z,10.60
2018-09-23T01:29:56.050Z,10.60
2018-09-23T01:32:24.250Z,10.60
2018-09-23T01:34:52.466Z,10.60
2018-09-23T01:37:20.671Z,10.60
2018-09-23T01:39:48.892Z,10.50
2018-09-23T01:42:17.094Z,10.60
2018-09-23T01:44:45.538Z,10.60
2018-09-23T01:47:14.106Z,10.60
2018-09-23T01:49:42.330Z,10.60
2018-09-23T01:52:10.510Z,10.60
2018-09-23T01:54:40.566Z,10.60
2018-09-23T01:57:08.750Z,10.60
2018-09-23T01:59:36.906Z,10.60
2018-09-23T02:02:06.634Z,10.60
2018-09-23T02:04:34.834Z,10.50
2018-09-23T02:07:03.057Z,10.50
2018-09-23T02:09:31.786Z,10.60
2018-09-23T02:12:00.015Z,10.60
2018-09-23T02:14:28.166Z,10.60
2018-09-23T02:16:56.366Z,10.60
2018-09-23T02:19:24.586Z,10.60
2018-09-23T02:21:52.756Z,10.60
2018-09-23T02:24:20.962Z,10.60
2018-09-23T02:26:49.215Z,10.60
2018-09-23T02:29:17.506Z,10.70
2018-09-23T02:31:46.459Z,10.70
2018-09-23T02:34:14.845Z,10.70
2018-09-23T02:36:43.086Z,10.70
2018-09-23T02:39:12.738Z,10.80
2018-09-23T02:41:40.930Z,10.80
2018-09-23T02:44:09.157Z,10.80
2018-09-23T02:46:37.375Z,10.80
2018-09-23T02:49:05.682Z,10.80
2018-09-23T02:51:33.890Z,10.90
2018-09-23T02:54:02.922Z,10.90
2018-09-23T02:56:31.894Z,10.90
2018-09-23T02:59:00.899Z,10.90
2018-09-23T03:01:29.138Z,10.90
2018-09-23T03:03:57.326Z,10.90
2018-09-23T03:06:25.516Z,10.90
2018-09-23T03:08:53.714Z,10.90
2018-09-23T03:11:21.931Z,10.90
2018-09-23T03:13:50.137Z,10.90
2018-09-23T03:16:18.310Z,10.90
2018-09-23T03:18:46.525Z,10.90
2018-09-23T03:21:14.698Z,10.90
2018-09-23T03:23:42.889Z,10.90
2018-09-23T03:26:11.091Z,10.90
2018-09-23T03:28:39.301Z,10.80
2018-09-23T03:31:07.851Z,10.80
2018-09-23T03:33:36.322Z,10.80
2018-09-23T03:36:04.942Z,10.80
2018-09-23T03:38:33.185Z,10.80
2018-09-23T03:41:01.535Z,10.80
2018-09-23T03:43:29.739Z,10.80
2018-09-23T03:45:57.945Z,10.80
2018-09-23T03:48:26.190Z,10.80
2018-09-23T03:50:54.378Z,10.80
2018-09-23T03:53:22.600Z,10.80
2018-09-23T03:55:50.811Z,10.80
2018-09-23T03:58:19.027Z,10.80
2018-09-23T04:00:47.237Z,10.80
2018-09-23T04:03:15.562Z,10.80
2018-09-23T04:05:43.738Z,10.80
2018-09-23T04:08:11.942Z,10.80
2018-09-23T04:10:40.096Z,10.80
2018-09-23T04:13:08.321Z,10.70
2018-09-23T04:15:37.246Z,10.80
2018-09-23T04:18:05.580Z,10.70
2018-09-23T04:20:33.718Z,10.80
2018-09-23T04:23:01.925Z,10.80
2018-09-23T04:25:30.206Z,10.80
2018-09-23T04:27:58.431Z,10.80
2018-09-23T04:30:26.600Z,10.70
2018-09-23T04:32:54.803Z,10.80
2018-09-23T04:35:23.001Z,10.80
2018-09-23T04:37:51.303Z,10.80
2018-09-23T04:40:19.541Z,10.80
2018-09-23T04:42:47.737Z,10.80
2018-09-23T04:45:15.923Z,10.80
2018-09-23T04:47:45.634Z,10.80
2018-09-23T04:50:13.832Z,10.80
2018-09-23T04:52:42.038Z,10.80
2018-09-23T04:55:10.306Z,10.90
2018-09-23T04:57:38.416Z,10.90
2018-09-23T05:00:06.632Z,10.90
2018-09-23T05:02:34.821Z,10.90
2018-09-23T05:05:03.057Z,10.90
2018-09-23T05:07:31.375Z,10.90
2018-09-23T05:09:59.570Z,10.90
2018-09-23T05:12:27.738Z,11.00
2018-09-23T05:14:55.906Z,11.00
2018-09-23T05:17:24.125Z,11.00
2018-09-23T05:19:52.322Z,11.00
2018-09-23T05:22:20.505Z,11.00
2018-09-23T05:24:48.681Z,11.00
2018-09-23T05:27:16.914Z,11.10
2018-09-23T05:29:45.911Z,11.10
2018-09-23T05:32:14.082Z,11.10
2018-09-23T05:34:42.318Z,11.10
2018-09-23T05:37:10.829Z,11.10
2018-09-23T05:39:38.980Z,11.10
2018-09-23T05:42:07.177Z,11.20
2018-09-23T05:44:35.422Z,11.20
2018-09-23T05:47:03.634Z,11.20
2018-09-23T05:49:32.190Z,11.20
2018-09-23T05:52:00.410Z,11.20
2018-09-23T05:54:28.590Z,11.20
2018-09-23T05:56:56.797Z,11.30
2018-09-23T05:59:25.072Z,11.30
2018-09-23T06:01:53.294Z,11.30
2018-09-23T06:04:21.457Z,11.30
2018-09-23T06:06:49.643Z,11.30
2018-09-23T06:09:17.822Z,11.30
2018-09-23T06:11:45.994Z,11.40
2018-09-23T06:14:14.152Z,11.40
2018-09-23T06:16:43.022Z,11.40
2018-09-23T06:19:11.367Z,11.40
2018-09-23T06:21:40.043Z,11.40
2018-09-23T06:24:08.833Z,11.50
2018-09-23T06:26:36.995Z,11.50
2018-09-23T06:29:06.298Z,11.50
2018-09-23T06:31:34.462Z,11.50
2018-09-23T06:34:02.702Z,11.50
2018-09-23T06:36:30.950Z,11.50
2018-09-23T06:38:59.118Z,11.60
2018-09-23T06:41:27.362Z,11.60
2018-09-23T06:43:55.579Z,11.60
2018-09-23T06:46:23.787Z,11.70
2018-09-23T06:48:52.274Z,11.70
2018-09-23T06:51:20.509Z,11.70
2018-09-23T06:53:48.703Z,11.70
2018-09-23T06:56:16.878Z,11.80
2018-09-23T06:58:45.175Z,11.80
2018-09-23T07:01:13.396Z,11.90
2018-09-23T07:03:43.210Z,11.90
2018-09-23T07:06:11.375Z,12.00
2018-09-23T07:08:39.702Z,12.00
2018-09-23T07:11:07.923Z,12.00
2018-09-23T07:13:36.170Z,12.10
2018-09-23T07:16:04.365Z,12.10
2018-09-23T07:18:36.486Z,12.10
2018-09-23T07:21:04.682Z,12.20
2018-09-23T07:23:32.859Z,12.30
2018-09-23T07:26:01.097Z,12.30
2018-09-23T07:28:29.450Z,12.40
2018-09-23T07:30:57.655Z,12.40
2018-09-23T07:33:26.594Z,12.50
2018-09-23T07:35:54.795Z,12.60
2018-09-23T07:38:23.002Z,12.70
2018-09-23T07:40:52.091Z,12.80
2018-09-23T07:43:20.290Z,12.90
2018-09-23T07:45:48.507Z,13.00
2018-09-23T07:48:16.886Z,13.10
2018-09-23T07:50:45.578Z,13.10
2018-09-23T07:53:14.412Z,13.20
2018-09-23T07:55:42.643Z,13.30
2018-09-23T07:58:10.813Z,13.40
2018-09-23T08:00:39.009Z,13.50
2018-09-23T08:03:07.195Z,13.60
2018-09-23T08:05:35.414Z,13.70
2018-09-23T08:08:04.516Z,13.80
2018-09-23T08:10:32.743Z,13.90
2018-09-23T08:13:01.142Z,13.90
2018-09-23T08:15:29.385Z,14.00
2018-09-23T08:17:57.513Z,14.10
2018-09-23T08:20:25.747Z,14.30
2018-09-23T08:22:53.832Z,14.40
2018-09-23T08:25:22.002Z,14.60
2018-09-23T08:27:50.161Z,14.70
2018-09-23T08:30:18.870Z,14.80
2018-09-23T08:32:47.078Z,15.00
2018-09-23T08:35:15.421Z,15.10
2018-09-23T08:37:43.562Z,15.10
2018-09-23T08:40:11.763Z,15.10
2018-09-23T08:42:39.991Z,15.20
2018-09-23T08:45:08.957Z,15.30
2018-09-23T08:47:37.485Z,15.40
2018-09-23T08:50:06.249Z,15.50
2018-09-23T08:52:34.732Z,15.50
2018-09-23T08:55:02.944Z,15.70
2018-09-23T08:57:31.679Z,15.80
2018-09-23T09:00:00.178Z,16.00
2018-09-23T09:02:28.383Z,16.20
2018-09-23T09:04:56.566Z,16.30
2018-09-23T09:07:25.632Z,16.50
2018-09-23T09:09:53.852Z,16.70
2018-09-23T09:12:22.026Z,16.80
2018-09-23T09:14:50.227Z,16.90
2018-09-23T09:17:18.467Z,17.10
2018-09-23T09:19:46.737Z,17.20
2018-09-23T09:22:14.915Z,17.30
2018-09-23T09:24:43.074Z,17.50
2018-09-23T09:27:11.547Z,17.70
2018-09-23T09:29:39.728Z,17.80
2018-09-23T09:32:07.939Z,17.90
2018-09-23T09:34:36.082Z,18.00
2018-09-23T09:37:04.418Z,18.20
2018-09-23T09:39:32.606Z,18.40
2018-09-23T09:42:00.778Z,18.50
2018-09-23T09:44:29.462Z,18.60
2018-09-23T09:46:58.162Z,18.80
2018-09-23T09:49:26.363Z,18.90
2018-09-23T09:51:54.574Z,18.90
2018-09-23T09:54:22.970Z,18.80
2018-09-23T09:56:51.170Z,18.70
2018-09-23T09:59:19.742Z,18.60
2018-09-23T10:01:47.934Z,18.60
2018-09-23T10:04:16.499Z,18.60
2018-09-23T10:06:44.828Z,18.60
2018-09-23T10:09:13.002Z,18.60
2018-09-23T10:11:41.230Z,18.70
2018-09-23T10:14:09.566Z,18.80
2018-09-23T10:16:37.744Z,18.90
2018-09-23T10:19:05.939Z,18.90
2018-09-23T10:21:34.106Z,18.80
2018-09-23T10:24:02.379Z,18.90
2018-09-23T10:26:30.562Z,19.10
2018-09-23T10:28:58.719Z,19.30
2018-09-23T10:31:27.245Z,19.50
2018-09-23T10:33:55.414Z,19.80
2018-09-23T10:36:23.595Z,20.10
2018-09-23T10:38:51.762Z,20.10
2018-09-23T10:41:19.970Z,20.20
2018-09-23T10:43:48.150Z,20.30
2018-09-23T10:46:16.354Z,20.60
2018-09-23T10:48:45.349Z,20.90
2018-09-23T10:51:13.547Z,21.70
2018-09-23T10:53:41.749Z,22.30
2018-09-23T10:56:10.197Z,22.30
2018-09-23T10:58:38.404Z,22.10
2018-09-23T11:01:06.952Z,21.60
2018-09-23T11:03:35.111Z,21.40
2018-09-23T11:06:03.266Z,21.40
2018-09-23T11:08:31.906Z,21.40
2018-09-23T11:11:00.790Z,21.50
2018-09-23T11:13:28.994Z,21.50
2018-09-23T11:15:57.157Z,21.50
2018-09-23T11:18:25.748Z,21.80
2018-09-23T11:20:54.506Z,22.30
2018-09-23T11:23:22.729Z,22.80
2018-09-23T11:25:51.267Z,22.70
2018-09-23T11:28:19.458Z,22.70
2018-09-23T11:30:47.696Z,22.50
2018-09-23T11:33:16.000Z,22.40
2018-09-23T11:35:44.171Z,22.20
2018-09-23T11:38:12.372Z,21.90
2018-09-23T11:40:40.551Z,21.80
2018-09-23T11:43:08.707Z,21.50
2018-09-23T11:45:37.099Z,21.50
2018-09-23T11:48:12.127Z,21.80
2018-09-23T11:50:43.844Z,22.60
2018-09-23T11:53:12.786Z,23.40
2018-09-23T11:55:41.243Z,23.40
2018-09-23T11:58:09.492Z,23.20
2018-09-23T12:00:39.617Z,22.50
2018-09-23T12:03:07.840Z,22.10
2018-09-23T12:05:36.043Z,21.60
2018-09-23T12:08:04.217Z,21.60
2018-09-23T12:10:32.426Z,21.70
2018-09-23T12:13:00.643Z,22.00
2018-09-23T12:15:28.893Z,22.30
2018-09-23T12:17:57.039Z,22.40
2018-09-23T12:20:25.271Z,22.40
2018-09-23T12:22:53.449Z,22.50
2018-09-23T12:25:21.638Z,22.80
2018-09-23T12:27:49.814Z,23.00
2018-09-23T12:30:17.954Z,23.00
2018-09-23T12:32:48.111Z,23.20
2018-09-23T12:35:16.554Z,23.50
2018-09-23T12:37:44.820Z,23.20
2018-09-23T12:40:13.015Z,23.20
2018-09-23T12:42:41.214Z,23.00
2018-09-23T12:45:09.418Z,22.70
2018-09-23T12:47:37.729Z,22.40
2018-09-23T12:50:06.333Z,22.10
2018-09-23T12:52:34.502Z,22.00
2018-09-23T12:55:02.719Z,21.80
2018-09-23T12:57:30.942Z,21.90
2018-09-23T12:59:59.844Z,22.10
2018-09-23T13:02:28.028Z,22.40
2018-09-23T13:04:56.211Z,22.60
2018-09-23T13:07:24.377Z,22.60
2018-09-23T13:09:52.552Z,22.70
2018-09-23T13:12:20.697Z,23.10
2018-09-23T13:14:49.526Z,23.10
2018-09-23T13:17:18.262Z,22.70
2018-09-23T13:19:46.482Z,22.50
2018-09-23T13:22:17.018Z,22.40
2018-09-23T13:24:45.235Z,22.10
2018-09-23T13:27:14.966Z,22.20
2018-09-23T13:29:44.149Z,22.40
2018-09-23T13:32:13.141Z,22.40
2018-09-23T13:34:41.334Z,22.20
2018-09-23T13:37:09.511Z,22.40
2018-09-23T13:39:37.688Z,22.60
2018-09-23T13:42:06.658Z,22.60
2018-09-23T13:44:34.824Z,22.60
2018-09-23T13:47:03.001Z,22.80
2018-09-23T13:49:31.794Z,22.90
2018-09-23T13:52:00.011Z,22.70
2018-09-23T13:54:32.110Z,22.50
2018-09-23T13:57:00.310Z,22.30
2018-09-23T13:59:28.530Z,22.10
2018-09-23T14:01:56.716Z,22.00
2018-09-23T14:04:24.867Z,21.80
2018-09-23T14:06:53.070Z,21.70
2018-09-23T14:09:21.240Z,21.70
2018-09-23T14:11:49.586Z,21.50
2018-09-23T14:14:18.118Z,21.40
2018-09-23T14:16:46.726Z,21.20
2018-09-23T14:19:14.909Z,21.00
2018-09-23T14:21:43.147Z,20.80
2018-09-23T14:24:12.970Z,20.60
2018-09-23T14:26:41.193Z,20.40
2018-09-23T14:29:09.389Z,20.30
2018-09-23T14:31:37.826Z,20.20
2018-09-23T14:34:05.998Z,19.90
2018-09-23T14:36:34.617Z,19.60
2018-09-23T14:39:02.958Z,18.70
2018-09-23T14:41:31.135Z,17.40
2018-09-23T14:44:00.082Z,16.60
2018-09-23T14:46:28.290Z,16.10
2018-09-23T14:48:56.723Z,15.80
2018-09-23T14:51:24.947Z,15.60
2018-09-23T14:53:53.961Z,15.40
2018-09-23T14:56:22.122Z,15.20
2018-09-23T14:58:50.550Z,15.00
2018-09-23T15:01:18.740Z,14.90
2018-09-23T15:03:46.946Z,14.80
2018-09-23T15:06:15.763Z,14.80
2018-09-23T15:08:44.046Z,14.80
2018-09-23T15:11:12.246Z,14.80
2018-09-23T15:13:40.773Z,14.90
2018-09-23T15:16:09.378Z,15.00
2018-09-23T15:18:37.559Z,15.30
2018-09-23T15:21:05.798Z,15.30
2018-09-23T15:23:34.285Z,15.30
2018-09-23T15:26:02.427Z,15.30
2018-09-23T15:28:30.669Z,15.20
2018-09-23T15:30:59.515Z,15.10
2018-09-23T15:33:27.649Z,15.00
2018-09-23T15:35:55.795Z,14.90
2018-09-23T15:38:24.155Z,14.80
2018-09-23T15:40:52.355Z,14.50
2018-09-23T15:43:35.226Z,14.30
2018-09-23T15:46:03.369Z,14.20
2018-09-23T15:48:31.930Z,14.20
2018-09-23T15:51:00.801Z,14.00
2018-09-23T15:53:28.967Z,14.00
2018-09-23T15:55:57.190Z,13.90
2018-09-23T15:58:25.373Z,13.80
2018-09-23T16:00:53.746Z,13.70
2018-09-23T16:03:21.959Z,13.60
2018-09-23T16:05:50.781Z,13.60
2018-09-23T16:08:19.517Z,13.50
2018-09-23T16:10:48.132Z,13.50
2018-09-23T16:13:16.306Z,13.50
2018-09-23T16:15:44.610Z,13.40
2018-09-23T16:18:13.076Z,13.40
2018-09-23T16:20:41.614Z,13.40
2018-09-23T16:23:09.780Z,13.50
2018-09-23T16:25:38.009Z,13.50
2018-09-23T16:28:06.947Z,13.50
2018-09-23T16:30:35.190Z,13.30
2018-09-23T16:33:03.418Z,13.20
2018-09-23T16:35:31.646Z,13.10
2018-09-23T16:37:59.878Z,13.10
2018-09-23T16:40:28.053Z,13.00
2018-09-23T16:42:56.346Z,12.90
2018-09-23T16:45:24.702Z,12.80
2018-09-23T16:47:52.895Z,12.70
2018-09-23T16:50:21.262Z,12.60
2018-09-23T16:52:49.458Z,12.60
2018-09-23T16:55:17.758Z,12.60
2018-09-23T16:57:45.992Z,12.50
2018-09-23T17:00:14.166Z,12.50
2018-09-23T17:02:42.482Z,12.50
2018-09-23T17:05:10.658Z,12.40
2018-09-23T17:07:38.877Z,12.40
2018-09-23T17:10:07.106Z,12.40
2018-09-23T17:12:35.715Z,12.30
2018-09-23T17:15:03.911Z,12.20
2018-09-23T17:17:32.238Z,12.20
2018-09-23T17:20:00.450Z,12.20
2018-09-23T17:22:28.639Z,12.20
2018-09-23T17:24:57.026Z,12.20
2018-09-23T17:27:27.974Z,12.20
2018-09-23T17:29:56.183Z,12.20
2018-09-23T17:32:25.140Z,12.20
2018-09-23T17:34:53.340Z,12.20
2018-09-23T17:37:21.823Z,12.20
2018-09-23T17:39:50.111Z,12.10
2018-09-23T17:42:18.319Z,12.10
2018-09-23T17:44:47.227Z,12.00
2018-09-23T17:47:15.409Z,12.00
2018-09-23T17:49:43.621Z,11.90
2018-09-23T17:52:12.207Z,11.90
2018-09-23T17:54:40.370Z,11.80
2018-09-23T17:57:08.966Z,11.80
2018-09-23T17:59:37.895Z,11.70
2018-09-23T18:02:06.119Z,11.70
2018-09-23T18:04:34.191Z,11.70
2018-09-23T18:07:02.494Z,11.60
2018-09-23T18:09:31.099Z,11.60
2018-09-23T18:11:59.353Z,11.60
2018-09-23T18:14:27.542Z,11.60
2018-09-23T18:16:55.756Z,11.60
2018-09-23T18:19:23.939Z,11.60
2018-09-23T18:21:52.123Z,11.50
2018-09-23T18:24:20.809Z,11.50
2018-09-23T18:26:49.041Z,11.50
2018-09-23T18:29:17.282Z,11.40
2018-09-23T18:31:45.593Z,11.40
2018-09-23T18:34:13.770Z,11.40
2018-09-23T18:36:42.098Z,11.40
2018-09-23T18:39:10.580Z,11.30
2018-09-23T18:41:40.396Z,11.20
2018-09-23T18:44:08.572Z,11.20
2018-09-23T18:49:11.413Z,11.10
2018-09-23T18:51:39.620Z,11.10
2018-09-23T18:54:13.466Z,11.10
2018-09-23T18:56:41.715Z,11.10
2018-09-23T18:59:09.952Z,11.10
2018-09-23T19:01:38.105Z,11.10
2018-09-23T19:04:06.318Z,11.10
2018-09-23T19:06:41.296Z,11.10
2018-09-23T19:09:09.677Z,11.10
2018-09-23T19:11:38.196Z,11.00
2018-09-23T19:14:06.356Z,11.00
2018-09-23T19:16:35.055Z,10.90
2018-09-23T19:19:03.697Z,10.80
2018-09-23T19:21:31.921Z,10.90
2018-09-23T19:24:00.163Z,10.90
2018-09-23T19:26:29.185Z,10.90
2018-09-23T19:28:57.410Z,10.90
2018-09-23T19:31:25.616Z,10.90
2018-09-23T19:33:54.529Z,10.90
2018-09-23T19:36:22.727Z,10.90
2018-09-23T19:38:50.918Z,10.90
2018-09-23T19:41:19.118Z,10.90
2018-09-23T19:43:48.062Z,10.90
2018-09-23T19:46:16.306Z,10.80
2018-09-23T19:48:51.290Z,10.80
2018-09-23T19:51:19.514Z,10.80
2018-09-23T19:53:47.690Z,10.80
2018-09-23T19:56:16.135Z,10.70
2018-09-23T19:58:44.307Z,10.60
2018-09-23T20:01:12.540Z,10.50
2018-09-23T20:03:40.774Z,10.50
2018-09-23T20:06:08.970Z,10.40
2018-09-23T20:08:37.153Z,10.40
2018-09-23T20:11:05.530Z,10.40
2018-09-23T20:13:33.758Z,10.30
2018-09-23T20:16:01.935Z,10.20
2018-09-23T20:18:30.475Z,10.20
2018-09-23T20:20:59.031Z,10.00
2018-09-23T20:23:27.275Z,10.00
2018-09-23T20:25:55.597Z,10.00
2018-09-23T20:28:23.891Z,10.00
2018-09-23T20:30:51.974Z,10.00
2018-09-23T20:33:20.160Z,10.00
2018-09-23T20:35:48.363Z,9.90
2018-09-23T20:38:16.546Z,9.90
2018-09-23T20:40:44.804Z,9.90
2018-09-23T20:43:13.035Z,9.90
2018-09-23T20:45:41.207Z,9.80
2018-09-23T20:48:09.420Z,9.70
2018-09-23T20:50:37.605Z,9.60
2018-09-23T20:53:06.090Z,9.50
2018-09-23T20:55:34.644Z,9.40
2018-09-23T20:58:02.782Z,9.40
2018-09-23T21:00:31.182Z,9.30
2018-09-23T21:03:00.341Z,9.30
2018-09-23T21:05:29.022Z,9.30
2018-09-23T21:07:57.332Z,9.40
2018-09-23T21:10:25.531Z,9.50
2018-09-23T21:12:57.163Z,9.50
2018-09-23T21:15:25.354Z,9.60
2018-09-23T21:17:53.672Z,9.60
2018-09-23T21:20:21.858Z,9.60
2018-09-23T21:22:50.064Z,9.60
2018-09-23T21:25:18.234Z,9.50
2018-09-23T21:27:46.434Z,9.50
2018-09-23T21:30:15.706Z,9.60
2018-09-23T21:32:44.011Z,9.60
2018-09-23T21:35:12.182Z,9.60
2018-09-23T21:37:40.382Z,9.60
2018-09-23T21:40:08.599Z,9.60
2018-09-23T21:42:36.889Z,9.60
2018-09-23T21:45:05.163Z,9.50
2018-09-23T21:47:36.325Z,9.40
2018-09-23T21:50:06.125Z,9.30
2018-09-23T21:52:34.777Z,9.30
2018-09-23T21:55:02.966Z,9.20
2018-09-23T21:57:31.231Z,9.10
2018-09-23T22:00:00.069Z,9.10
2018-09-23T22:02:28.250Z,9.00
2018-09-23T22:04:56.429Z,9.00
2018-09-23T22:07:24.575Z,9.00
2018-09-23T22:09:52.817Z,8.90
2018-09-23T22:12:21.010Z,8.80
2018-09-23T22:14:49.221Z,8.80
2018-09-23T22:17:17.522Z,8.80
2018-09-23T22:19:45.722Z,8.70
2018-09-23T22:22:13.890Z,8.70
2018-09-23T22:24:42.326Z,8.60
2018-09-23T22:27:10.506Z,8.60
2018-09-23T22:29:38.676Z,8.50
2018-09-23T22:32:06.857Z,8.50
2018-09-23T22:34:35.350Z,8.60
2018-09-23T22:37:03.546Z,8.50
2018-09-23T22:39:31.811Z,8.60
2018-09-23T22:42:00.037Z,8.60
2018-09-23T22:44:29.049Z,8.70
2018-09-23T22:46:57.411Z,8.70
2018-09-23T22:49:25.726Z,8.80
2018-09-23T22:51:53.914Z,8.80
2018-09-23T22:54:22.089Z,8.80
2018-09-23T22:56:50.264Z,8.80
2018-09-23T22:59:18.440Z,8.80
2018-09-23T23:01:46.826Z,8.70
2018-09-23T23:04:15.719Z,8.70
2018-09-23T23:06:44.515Z,8.80
2018-09-23T23:09:12.674Z,8.80
2018-09-23T23:11:40.910Z,8.90
2018-09-23T23:14:09.265Z,8.90
2018-09-23T23:16:41.209Z,8.90
2018-09-23T23:19:09.710Z,8.90
2018-09-23T23:21:37.904Z,9.00
2018-09-23T23:24:06.107Z,9.00
2018-09-23T23:26:34.866Z,8.90
2018-09-23T23:29:03.814Z,9.00
2018-09-23T23:31:32.034Z,8.90
2018-09-23T23:34:00.311Z,8.90
2018-09-23T23:36:28.480Z,9.00
2018-09-23T23:38:57.269Z,9.00
2018-09-23T23:41:25.558Z,9.10
2018-09-23T23:43:53.734Z,9.10
2018-09-23T23:46:22.294Z,9.10
2018-09-23T23:48:50.763Z,9.10
2018-09-23T23:51:19.204Z,9.10
2018-09-23T23:53:47.418Z,9.00
2018-09-23T23:56:15.566Z,9.10
2018-09-23T23:58:43.763Z,9.10
